createdAt,value
2017-08-01T00:01:34.518Z,21.05
2017-08-01T00:03:35.948Z,21.06
2017-08-01T00:05:37.449Z,21.11
2017-08-01T00:08:20.378Z,21.14
2017-08-01T00:11:02.784Z,21.06
2017-08-01T00:13:04.214Z,21.02
2017-08-01T00:15:05.642Z,21.16
2017-08-01T00:17:07.072Z,21.05
2017-08-01T00:19:08.521Z,21.05
2017-08-01T00:21:09.969Z,21.09
2017-08-01T00:23:11.397Z,21.06
2017-08-01T00:25:12.828Z,21.06
2017-08-01T00:27:14.263Z,21.06
2017-08-01T00:29:15.698Z,21.04
2017-08-01T00:31:17.126Z,21.06
2017-08-01T00:33:18.561Z,21.13
2017-08-01T00:35:19.989Z,21.09
2017-08-01T00:37:21.452Z,21.06
2017-08-01T00:40:03.906Z,21.11
2017-08-01T00:42:05.674Z,20.98
2017-08-01T00:44:07.114Z,20.99
2017-08-01T00:46:08.588Z,21.02
2017-08-01T00:48:10.008Z,21.02
2017-08-01T00:50:11.479Z,20.98
2017-08-01T00:52:13.309Z,20.95
2017-08-01T00:54:55.752Z,20.96
2017-08-01T00:56:57.179Z,20.90
2017-08-01T00:58:58.710Z,20.91
2017-08-01T01:01:00.339Z,20.89
2017-08-01T01:03:01.744Z,20.93
2017-08-01T01:05:03.189Z,20.95
2017-08-01T01:07:04.625Z,20.93
2017-08-01T01:09:06.159Z,20.87
2017-08-01T01:11:48.567Z,20.87
2017-08-01T01:13:49.996Z,20.81
2017-08-01T01:15:51.424Z,20.83
2017-08-01T01:17:53.059Z,20.87
2017-08-01T01:19:54.488Z,20.86
2017-08-01T01:21:55.921Z,20.86
2017-08-01T01:24:38.415Z,20.87
2017-08-01T01:26:39.975Z,20.84
2017-08-01T01:28:41.618Z,20.83
2017-08-01T01:30:43.243Z,20.83
2017-08-01T01:32:44.688Z,20.86
2017-08-01T01:34:46.118Z,20.83
2017-08-01T01:36:47.548Z,20.83
2017-08-01T01:38:48.976Z,20.81
2017-08-01T01:41:31.409Z,20.86
2017-08-01T01:44:14.275Z,20.90
2017-08-01T01:46:15.880Z,20.81
2017-08-01T01:48:17.270Z,20.86
2017-08-01T01:50:18.699Z,20.72
2017-08-01T01:52:20.142Z,20.80
2017-08-01T01:54:21.570Z,20.74
2017-08-01T01:57:03.992Z,20.86
2017-08-01T01:59:05.419Z,20.79
2017-08-01T02:01:06.856Z,20.80
2017-08-01T02:03:08.281Z,20.76
2017-08-01T02:05:09.712Z,20.79
2017-08-01T02:07:11.174Z,20.74
2017-08-01T02:09:12.606Z,20.80
2017-08-01T02:11:14.055Z,20.74
2017-08-01T02:13:57.255Z,20.79
2017-08-01T02:15:58.676Z,20.79
2017-08-01T02:18:00.791Z,20.76
2017-08-01T02:20:02.208Z,20.80
2017-08-01T02:22:03.636Z,20.80
2017-08-01T02:24:05.068Z,20.74
2017-08-01T02:26:06.502Z,20.79
2017-08-01T02:28:07.999Z,20.84
2017-08-01T02:30:09.467Z,20.80
2017-08-01T02:32:10.905Z,20.80
2017-08-01T02:34:12.393Z,20.84
2017-08-01T02:36:13.926Z,20.83
2017-08-01T02:38:15.420Z,20.86
2017-08-01T02:40:16.923Z,20.87
2017-08-01T02:42:18.447Z,20.87
2017-08-01T02:44:19.919Z,20.83
2017-08-01T02:46:21.496Z,20.89
2017-08-01T02:48:22.970Z,20.80
2017-08-01T02:50:24.491Z,20.87
2017-08-01T02:52:26.037Z,20.81
2017-08-01T02:54:27.545Z,20.90
2017-08-01T02:56:29.057Z,20.84
2017-08-01T02:58:30.568Z,20.84
2017-08-01T03:00:32.109Z,20.83
2017-08-01T03:02:33.641Z,20.86
2017-08-01T03:04:35.130Z,20.80
2017-08-01T03:06:36.634Z,20.89
2017-08-01T03:08:38.156Z,20.83
2017-08-01T03:10:39.699Z,20.80
2017-08-01T03:13:23.182Z,20.84
2017-08-01T03:15:24.601Z,20.83
2017-08-01T03:17:26.157Z,20.76
2017-08-01T03:19:27.596Z,20.71
2017-08-01T03:21:29.002Z,20.76
2017-08-01T03:23:30.435Z,20.79
2017-08-01T03:25:31.979Z,20.79
2017-08-01T03:27:33.406Z,20.66
2017-08-01T03:29:34.841Z,20.71
2017-08-01T03:31:36.275Z,20.68
2017-08-01T03:33:37.727Z,20.58
2017-08-01T03:35:39.173Z,20.69
2017-08-01T03:37:40.669Z,20.53
2017-08-01T03:39:42.129Z,20.66
2017-08-01T03:42:24.539Z,20.54
2017-08-01T03:45:06.956Z,20.50
2017-08-01T03:47:08.384Z,20.54
2017-08-01T03:49:09.811Z,20.54
2017-08-01T03:51:11.261Z,20.53
2017-08-01T03:53:12.693Z,20.47
2017-08-01T03:55:14.155Z,20.42
2017-08-01T03:57:15.591Z,20.46
2017-08-01T03:59:17.022Z,20.50
2017-08-01T04:01:18.455Z,20.50
2017-08-01T04:04:01.573Z,20.50
2017-08-01T04:06:02.957Z,20.53
2017-08-01T04:08:04.973Z,20.54
2017-08-01T04:10:06.384Z,20.51
2017-08-01T04:12:07.903Z,20.53
2017-08-01T04:14:09.363Z,20.62
2017-08-01T04:16:10.797Z,20.62
2017-08-01T04:18:12.299Z,20.65
2017-08-01T04:20:54.829Z,20.61
2017-08-01T04:22:56.858Z,20.54
2017-08-01T04:24:58.266Z,20.64
2017-08-01T04:26:59.701Z,20.54
2017-08-01T04:29:01.183Z,20.62
2017-08-01T04:31:02.613Z,20.62
2017-08-01T04:33:04.037Z,20.62
2017-08-01T04:35:05.462Z,20.62
2017-08-01T04:37:06.926Z,20.62
2017-08-01T04:39:08.362Z,20.62
2017-08-01T04:41:09.866Z,20.62
2017-08-01T04:43:11.321Z,20.56
2017-08-01T04:45:12.832Z,20.62
2017-08-01T04:47:14.340Z,20.58
2017-08-01T04:49:15.945Z,20.66
2017-08-01T04:51:58.357Z,20.68
2017-08-01T04:53:59.796Z,20.65
2017-08-01T04:56:01.228Z,20.59
2017-08-01T04:58:02.660Z,20.59
2017-08-01T05:00:04.156Z,20.65
2017-08-01T05:02:05.622Z,20.66
2017-08-01T05:04:07.052Z,20.47
2017-08-01T05:06:08.602Z,20.50
2017-08-01T05:08:10.063Z,20.59
2017-08-01T05:10:11.630Z,20.68
2017-08-01T05:12:13.184Z,20.66
2017-08-01T05:14:14.695Z,20.62
2017-08-01T05:16:16.115Z,20.59
2017-08-01T05:18:17.668Z,20.62
2017-08-01T05:20:19.193Z,20.56
2017-08-01T05:22:20.671Z,20.56
2017-08-01T05:24:22.227Z,20.59
2017-08-01T05:26:23.798Z,20.68
2017-08-01T05:28:25.333Z,20.66
2017-08-01T05:30:26.808Z,20.58
2017-08-01T05:32:28.302Z,20.59
2017-08-01T05:34:29.831Z,20.61
2017-08-01T05:36:31.292Z,20.65
2017-08-01T05:38:32.835Z,20.54
2017-08-01T05:40:34.349Z,20.68
2017-08-01T05:42:35.976Z,20.68
2017-08-01T05:44:37.489Z,20.83
2017-08-01T05:46:38.954Z,21.04
2017-08-01T05:49:22.390Z,21.34
2017-08-01T05:51:23.829Z,21.36
2017-08-01T05:53:25.256Z,21.34
2017-08-01T05:55:26.804Z,21.45
2017-08-01T05:57:28.233Z,21.72
2017-08-01T05:59:29.671Z,22.16
2017-08-01T06:01:31.103Z,22.28
2017-08-01T06:03:32.554Z,22.41
2017-08-01T06:05:33.999Z,22.43
2017-08-01T06:07:35.468Z,22.37
2017-08-01T06:09:37.006Z,22.49
2017-08-01T06:11:38.576Z,22.52
2017-08-01T06:13:40.135Z,22.54
2017-08-01T06:15:41.695Z,22.64
2017-08-01T06:18:23.102Z,22.71
2017-08-01T06:20:24.656Z,22.86
2017-08-01T06:22:26.085Z,22.92
2017-08-01T06:24:27.523Z,23.11
2017-08-01T06:26:29.004Z,23.49
2017-08-01T06:28:30.437Z,23.94
2017-08-01T06:30:31.881Z,25.01
2017-08-01T06:32:33.422Z,26.49
2017-08-01T06:34:35.048Z,28.43
2017-08-01T06:36:36.591Z,30.00
2017-08-01T06:38:38.133Z,30.84
2017-08-01T06:40:39.594Z,30.80
2017-08-01T06:42:41.133Z,30.45
2017-08-01T06:44:42.693Z,29.81
2017-08-01T06:46:44.298Z,29.97
2017-08-01T06:48:45.851Z,31.17
2017-08-01T06:50:47.426Z,31.96
2017-08-01T06:52:48.980Z,31.38
2017-08-01T06:54:50.528Z,30.72
2017-08-01T06:56:52.077Z,30.23
2017-08-01T06:58:53.632Z,29.74
2017-08-01T07:00:55.158Z,29.13
2017-08-01T07:02:56.728Z,28.50
2017-08-01T07:04:58.252Z,27.84
2017-08-01T07:06:59.754Z,27.09
2017-08-01T07:09:01.281Z,26.79
2017-08-01T07:11:02.882Z,26.32
2017-08-01T07:13:04.420Z,25.82
2017-08-01T07:15:06.001Z,25.68
2017-08-01T07:17:07.519Z,25.61
2017-08-01T07:19:08.977Z,25.67
2017-08-01T07:21:10.739Z,25.80
2017-08-01T07:23:12.352Z,25.99
2017-08-01T07:25:14.002Z,26.04
2017-08-01T07:27:15.530Z,26.50
2017-08-01T07:29:17.040Z,26.52
2017-08-01T07:31:18.634Z,26.57
2017-08-01T07:33:20.186Z,26.28
2017-08-01T07:35:21.742Z,26.35
2017-08-01T07:37:23.243Z,26.18
2017-08-01T07:39:24.777Z,26.28
2017-08-01T07:41:26.316Z,26.24
2017-08-01T07:43:27.889Z,25.98
2017-08-01T07:46:10.302Z,25.98
2017-08-01T07:48:11.739Z,25.99
2017-08-01T07:50:54.178Z,26.04
2017-08-01T07:52:55.623Z,26.01
2017-08-01T07:54:57.059Z,25.98
2017-08-01T07:56:58.501Z,25.86
2017-08-01T07:58:59.937Z,25.93
2017-08-01T08:01:01.378Z,25.97
2017-08-01T08:03:43.841Z,25.65
2017-08-01T08:05:45.322Z,25.71
2017-08-01T08:08:27.905Z,25.80
2017-08-01T08:10:29.329Z,25.77
2017-08-01T08:12:30.766Z,25.83
2017-08-01T08:14:32.213Z,25.75
2017-08-01T08:16:33.788Z,25.80
2017-08-01T08:19:16.385Z,25.69
2017-08-01T08:21:17.867Z,25.71
2017-08-01T08:24:00.610Z,25.62
2017-08-01T08:26:02.041Z,25.62
2017-08-01T08:28:03.487Z,25.59
2017-08-01T08:30:04.923Z,25.54
2017-08-01T08:32:06.393Z,25.50
2017-08-01T08:34:07.832Z,25.59
2017-08-01T08:36:09.272Z,25.62
2017-08-01T08:38:10.716Z,25.72
2017-08-01T08:40:12.153Z,25.67
2017-08-01T08:42:13.591Z,25.68
2017-08-01T08:44:15.041Z,25.71
2017-08-01T08:46:16.468Z,25.71
2017-08-01T08:48:17.903Z,25.71
2017-08-01T08:50:19.347Z,25.56
2017-08-01T08:52:20.775Z,25.31
2017-08-01T08:54:22.232Z,25.30
2017-08-01T08:56:23.670Z,25.27
2017-08-01T08:58:25.110Z,25.19
2017-08-01T09:00:26.647Z,25.12
2017-08-01T09:02:28.224Z,25.05
2017-08-01T09:04:29.667Z,25.00
2017-08-01T09:06:31.107Z,24.91
2017-08-01T09:08:32.542Z,24.94
2017-08-01T09:10:33.978Z,24.82
2017-08-01T09:12:35.462Z,24.88
2017-08-01T09:14:36.900Z,24.91
2017-08-01T09:16:38.336Z,24.94
2017-08-01T09:18:40.125Z,24.82
2017-08-01T09:20:41.573Z,24.80
2017-08-01T09:22:43.072Z,24.79
2017-08-01T09:24:44.628Z,24.88
2017-08-01T09:26:46.148Z,24.87
2017-08-01T09:28:47.663Z,24.90
2017-08-01T09:30:49.189Z,24.85
2017-08-01T09:32:50.945Z,24.87
2017-08-01T09:34:53.045Z,24.77
2017-08-01T09:36:54.559Z,24.85
2017-08-01T09:38:56.463Z,24.87
2017-08-01T09:40:58.325Z,24.98
2017-08-01T09:42:59.901Z,24.97
2017-08-01T09:45:01.440Z,25.10
2017-08-01T09:47:03.174Z,25.07
2017-08-01T09:49:04.788Z,25.10
2017-08-01T09:51:06.397Z,25.07
2017-08-01T09:53:07.903Z,25.10
2017-08-01T09:55:09.373Z,25.00
2017-08-01T09:57:10.894Z,25.05
2017-08-01T09:59:12.379Z,24.98
2017-08-01T10:01:13.910Z,24.98
2017-08-01T10:03:15.450Z,24.88
2017-08-01T10:05:16.904Z,24.85
2017-08-01T10:07:18.348Z,24.82
2017-08-01T10:09:19.787Z,24.83
2017-08-01T10:11:21.225Z,24.77
2017-08-01T10:13:22.732Z,24.64
2017-08-01T10:15:24.171Z,24.67
2017-08-01T10:17:25.611Z,24.63
2017-08-01T10:19:27.049Z,24.53
2017-08-01T10:21:28.493Z,24.45
2017-08-01T10:23:29.933Z,24.27
2017-08-01T10:25:31.368Z,24.10
2017-08-01T10:27:32.796Z,24.10
2017-08-01T10:29:34.233Z,23.94
2017-08-01T10:31:35.678Z,23.94
2017-08-01T10:33:37.117Z,23.92
2017-08-01T10:35:38.563Z,23.82
2017-08-01T10:37:40.000Z,23.87
2017-08-01T10:39:41.481Z,23.77
2017-08-01T10:42:24.624Z,23.87
2017-08-01T10:44:26.330Z,23.92
2017-08-01T10:46:27.994Z,24.07
2017-08-01T10:48:29.437Z,24.14
2017-08-01T10:50:31.037Z,23.97
2017-08-01T10:52:32.476Z,23.76
2017-08-01T10:54:33.925Z,23.67
2017-08-01T10:56:35.366Z,23.62
2017-08-01T10:58:36.851Z,23.72
2017-08-01T11:00:38.332Z,23.75
2017-08-01T11:02:39.761Z,23.82
2017-08-01T11:04:41.198Z,24.01
2017-08-01T11:06:42.675Z,24.01
2017-08-01T11:08:44.132Z,23.97
2017-08-01T11:10:45.664Z,23.97
2017-08-01T11:13:28.090Z,23.97
2017-08-01T11:15:29.531Z,23.98
2017-08-01T11:17:31.165Z,24.16
2017-08-01T11:19:32.598Z,24.47
2017-08-01T11:22:15.034Z,24.77
2017-08-01T11:24:16.471Z,24.85
2017-08-01T11:26:18.032Z,25.01
2017-08-01T11:28:19.485Z,25.01
2017-08-01T11:30:20.940Z,24.90
2017-08-01T11:32:22.375Z,24.77
2017-08-01T11:34:23.818Z,24.85
2017-08-01T11:36:25.266Z,24.90
2017-08-01T11:38:26.726Z,24.92
2017-08-01T11:40:28.164Z,24.73
2017-08-01T11:42:29.605Z,24.56
2017-08-01T11:45:12.061Z,24.67
2017-08-01T11:47:13.493Z,24.67
2017-08-01T11:49:14.941Z,24.80
2017-08-01T11:51:16.372Z,24.87
2017-08-01T11:53:17.816Z,25.02
2017-08-01T11:55:19.240Z,25.01
2017-08-01T11:57:20.687Z,24.90
2017-08-01T11:59:22.342Z,24.88
2017-08-01T12:01:23.783Z,24.77
2017-08-01T12:03:25.239Z,24.94
2017-08-01T12:05:26.713Z,25.00
2017-08-01T12:07:28.557Z,25.19
2017-08-01T12:09:29.963Z,25.32
2017-08-01T12:11:31.404Z,25.52
2017-08-01T12:13:32.848Z,25.62
2017-08-01T12:15:34.289Z,25.52
2017-08-01T12:17:35.739Z,25.46
2017-08-01T12:19:37.172Z,25.31
2017-08-01T12:21:38.612Z,25.50
2017-08-01T12:23:40.052Z,25.64
2017-08-01T12:25:41.494Z,25.68
2017-08-01T12:27:42.933Z,25.69
2017-08-01T12:29:44.371Z,25.82
2017-08-01T12:31:45.811Z,25.93
2017-08-01T12:33:47.253Z,25.94
2017-08-01T12:35:48.692Z,26.09
2017-08-01T12:37:50.129Z,25.91
2017-08-01T12:39:51.615Z,25.98
2017-08-01T12:41:53.129Z,25.99
2017-08-01T12:43:54.569Z,26.01
2017-08-01T12:45:56.018Z,26.01
2017-08-01T12:47:57.485Z,26.01
2017-08-01T12:49:58.924Z,25.91
2017-08-01T12:52:00.359Z,25.82
2017-08-01T12:54:01.807Z,25.83
2017-08-01T12:56:03.255Z,25.62
2017-08-01T12:58:04.707Z,25.44
2017-08-01T13:00:06.149Z,25.46
2017-08-01T13:02:07.591Z,25.31
2017-08-01T13:04:09.038Z,25.32
2017-08-01T13:06:10.471Z,25.20
2017-08-01T13:08:11.919Z,25.02
2017-08-01T13:10:13.347Z,24.97
2017-08-01T13:12:14.807Z,24.82
2017-08-01T13:14:16.241Z,24.75
2017-08-01T13:16:17.786Z,24.67
2017-08-01T13:18:19.230Z,24.49
2017-08-01T13:20:20.679Z,24.49
2017-08-01T13:22:22.115Z,24.37
2017-08-01T13:24:23.730Z,24.34
2017-08-01T13:26:25.158Z,24.29
2017-08-01T13:28:26.614Z,24.26
2017-08-01T13:30:28.035Z,24.07
2017-08-01T13:32:29.469Z,24.01
2017-08-01T13:34:30.910Z,23.97
2017-08-01T13:36:32.374Z,23.90
2017-08-01T13:38:33.844Z,23.75
2017-08-01T13:40:35.339Z,23.68
2017-08-01T13:42:36.858Z,23.64
2017-08-01T13:44:38.300Z,23.50
2017-08-01T13:46:39.735Z,23.61
2017-08-01T13:49:22.192Z,23.71
2017-08-01T13:51:23.955Z,23.58
2017-08-01T13:53:25.440Z,23.70
2017-08-01T13:55:26.897Z,23.72
2017-08-01T13:57:28.317Z,23.68
2017-08-01T13:59:29.758Z,23.71
2017-08-01T14:01:31.335Z,23.72
2017-08-01T14:03:32.803Z,23.83
2017-08-01T14:05:34.295Z,23.86
2017-08-01T14:07:35.768Z,23.90
2017-08-01T14:09:37.385Z,23.83
2017-08-01T14:11:38.947Z,23.90
2017-08-01T14:13:40.471Z,23.90
2017-08-01T14:15:42.022Z,23.79
2017-08-01T14:17:43.528Z,23.82
2017-08-01T14:19:45.030Z,23.76
2017-08-01T14:21:46.477Z,23.67
2017-08-01T14:23:47.913Z,23.83
2017-08-01T14:25:49.353Z,23.95
2017-08-01T14:27:50.790Z,23.92
2017-08-01T14:29:52.254Z,23.94
2017-08-01T14:31:53.698Z,24.13
2017-08-01T14:33:55.139Z,24.31
2017-08-01T14:35:56.569Z,24.45
2017-08-01T14:37:58.014Z,24.49
2017-08-01T14:39:59.489Z,24.56
2017-08-01T14:42:00.974Z,24.57
2017-08-01T14:44:02.520Z,24.67
2017-08-01T14:46:03.994Z,24.53
2017-08-01T14:48:05.462Z,24.63
2017-08-01T14:50:06.915Z,24.68
2017-08-01T14:52:49.377Z,24.47
2017-08-01T14:54:50.802Z,24.47
2017-08-01T14:56:52.237Z,24.61
2017-08-01T14:58:53.679Z,24.67
2017-08-01T15:00:55.172Z,24.87
2017-08-01T15:02:56.607Z,24.94
2017-08-01T15:04:58.044Z,24.94
2017-08-01T15:06:59.501Z,25.00
2017-08-01T15:09:00.933Z,25.16
2017-08-01T15:11:02.407Z,25.27
2017-08-01T15:13:03.861Z,25.24
2017-08-01T15:15:05.344Z,25.34
2017-08-01T15:17:06.809Z,25.35
2017-08-01T15:19:08.248Z,25.34
2017-08-01T15:21:09.692Z,25.19
2017-08-01T15:23:11.134Z,25.19
2017-08-01T15:25:12.572Z,25.00
2017-08-01T15:27:14.009Z,25.00
2017-08-01T15:29:15.449Z,25.02
2017-08-01T15:31:16.887Z,25.02
2017-08-01T15:33:18.328Z,24.85
2017-08-01T15:35:19.771Z,24.87
2017-08-01T15:37:21.220Z,24.71
2017-08-01T15:39:22.653Z,24.69
2017-08-01T15:41:24.101Z,24.52
2017-08-01T15:43:25.545Z,24.49
2017-08-01T15:45:27.009Z,24.31
2017-08-01T15:47:28.467Z,24.07
2017-08-01T15:49:29.975Z,23.83
2017-08-01T15:52:12.421Z,23.85
2017-08-01T15:54:13.849Z,23.70
2017-08-01T15:56:15.286Z,23.70
2017-08-01T15:58:16.725Z,23.67
2017-08-01T16:00:18.190Z,23.65
2017-08-01T16:02:19.644Z,23.58
2017-08-01T16:04:21.087Z,23.57
2017-08-01T16:06:22.749Z,23.53
2017-08-01T16:08:24.250Z,23.57
2017-08-01T16:10:25.759Z,23.57
2017-08-01T16:12:27.248Z,23.45
2017-08-01T16:14:28.684Z,23.35
2017-08-01T16:16:30.213Z,23.35
2017-08-01T16:18:31.680Z,23.32
2017-08-01T16:20:33.119Z,23.31
2017-08-01T16:22:34.546Z,23.32
2017-08-01T16:24:36.030Z,23.23
2017-08-01T16:26:37.496Z,23.24
2017-08-01T16:28:39.113Z,23.04
2017-08-01T16:30:40.582Z,23.04
2017-08-01T16:32:42.114Z,23.04
2017-08-01T16:34:43.596Z,23.04
2017-08-01T16:36:45.075Z,23.12
2017-08-01T16:38:46.585Z,23.11
2017-08-01T16:40:48.066Z,22.99
2017-08-01T16:42:49.530Z,23.15
2017-08-01T16:44:50.986Z,23.17
2017-08-01T16:46:52.430Z,23.12
2017-08-01T16:48:53.888Z,23.15
2017-08-01T16:50:55.341Z,23.12
2017-08-01T16:52:56.809Z,23.17
2017-08-01T16:54:58.278Z,23.04
2017-08-01T16:56:59.865Z,23.05
2017-08-01T16:59:01.393Z,23.01
2017-08-01T17:01:02.878Z,22.97
2017-08-01T17:03:04.360Z,22.92
2017-08-01T17:05:06.095Z,22.89
2017-08-01T17:07:07.615Z,22.86
2017-08-01T17:09:09.127Z,22.93
2017-08-01T17:11:10.997Z,22.99
2017-08-01T17:13:12.462Z,22.84
2017-08-01T17:15:14.044Z,22.84
2017-08-01T17:17:15.582Z,22.89
2017-08-01T17:19:17.042Z,22.93
2017-08-01T17:21:18.544Z,22.87
2017-08-01T17:23:20.205Z,22.80
2017-08-01T17:25:21.685Z,22.80
2017-08-01T17:27:23.497Z,22.82
2017-08-01T17:29:26.247Z,22.86
2017-08-01T17:31:28.112Z,22.87
2017-08-01T17:33:30.054Z,22.97
2017-08-01T17:35:31.550Z,22.90
2017-08-01T17:37:33.058Z,22.86
2017-08-01T17:39:34.541Z,22.80
2017-08-01T17:41:36.052Z,22.89
2017-08-01T17:44:18.493Z,22.74
2017-08-01T17:46:20.250Z,22.75
2017-08-01T17:48:21.688Z,22.82
2017-08-01T17:50:23.122Z,22.94
2017-08-01T17:52:24.814Z,22.97
2017-08-01T17:54:26.229Z,23.04
2017-08-01T17:56:27.665Z,23.09
2017-08-01T17:58:29.099Z,23.02
2017-08-01T18:00:30.538Z,23.02
2017-08-01T18:02:31.972Z,22.99
2017-08-01T18:04:33.432Z,23.08
2017-08-01T18:06:34.863Z,23.05
2017-08-01T18:08:36.302Z,23.02
2017-08-01T18:10:37.896Z,22.90
2017-08-01T18:12:39.794Z,22.84
2017-08-01T18:14:41.229Z,22.86
2017-08-01T18:16:42.677Z,22.82
2017-08-01T18:18:44.191Z,22.77
2017-08-01T18:21:27.172Z,22.60
2017-08-01T18:23:28.610Z,22.67
2017-08-01T18:25:30.047Z,22.64
2017-08-01T18:28:12.522Z,22.65
2017-08-01T18:30:13.958Z,22.56
2017-08-01T18:32:15.397Z,22.56
2017-08-01T18:34:16.905Z,22.53
2017-08-01T18:36:18.380Z,22.50
2017-08-01T18:38:19.807Z,22.52
2017-08-01T18:40:21.236Z,22.54
2017-08-01T18:42:22.731Z,22.49
2017-08-01T18:44:24.443Z,22.41
2017-08-01T18:46:25.883Z,22.38
2017-08-01T18:48:27.315Z,22.37
2017-08-01T18:50:28.749Z,22.32
2017-08-01T18:52:30.184Z,22.27
2017-08-01T18:54:31.625Z,22.25
2017-08-01T18:56:33.060Z,22.22
2017-08-01T18:58:34.518Z,22.22
2017-08-01T19:01:16.944Z,22.25
2017-08-01T19:03:18.527Z,22.19
2017-08-01T19:05:19.938Z,22.10
2017-08-01T19:07:21.373Z,22.07
2017-08-01T19:09:22.842Z,22.04
2017-08-01T19:11:24.293Z,22.09
2017-08-01T19:14:06.726Z,22.04
2017-08-01T19:16:08.168Z,21.98
2017-08-01T19:18:09.598Z,21.90
2017-08-01T19:20:11.031Z,21.69
2017-08-01T19:22:12.716Z,21.72
2017-08-01T19:24:14.136Z,21.83
2017-08-01T19:26:15.569Z,21.81
2017-08-01T19:28:16.993Z,21.91
2017-08-01T19:30:18.431Z,21.79
2017-08-01T19:32:19.861Z,21.81
2017-08-01T19:34:21.304Z,21.76
2017-08-01T19:36:22.736Z,21.67
2017-08-01T19:38:24.190Z,21.60
2017-08-01T19:40:25.640Z,21.64
2017-08-01T19:42:27.162Z,21.64
2017-08-01T19:44:28.592Z,21.63
2017-08-01T19:46:30.119Z,21.64
2017-08-01T19:48:31.760Z,21.57
2017-08-01T19:50:33.247Z,21.57
2017-08-01T19:52:34.764Z,21.59
2017-08-01T19:54:36.286Z,21.61
2017-08-01T19:56:37.726Z,21.60
2017-08-01T19:58:39.162Z,21.60
2017-08-01T20:00:40.599Z,21.56
2017-08-01T20:02:42.031Z,21.59
2017-08-01T20:04:43.457Z,21.51
2017-08-01T20:06:44.886Z,21.54
2017-08-01T20:08:46.330Z,21.51
2017-08-01T20:10:47.804Z,21.57
2017-08-01T20:12:49.240Z,21.45
2017-08-01T20:14:50.687Z,21.48
2017-08-01T20:16:52.102Z,21.56
2017-08-01T20:18:53.534Z,21.63
2017-08-01T20:20:55.011Z,21.56
2017-08-01T20:22:56.556Z,21.50
2017-08-01T20:24:58.467Z,21.53
2017-08-01T20:26:59.905Z,21.46
2017-08-01T20:29:01.418Z,21.54
2017-08-01T20:31:03.046Z,21.51
2017-08-01T20:33:04.553Z,21.53
2017-08-01T20:35:06.049Z,21.42
2017-08-01T20:37:07.585Z,21.44
2017-08-01T20:39:09.090Z,21.38
2017-08-01T20:41:10.556Z,21.38
2017-08-01T20:43:12.050Z,21.39
2017-08-01T20:45:13.609Z,21.35
2017-08-01T20:47:15.103Z,21.30
2017-08-01T20:49:16.615Z,21.39
2017-08-01T20:51:18.110Z,21.34
2017-08-01T20:53:19.669Z,21.30
2017-08-01T20:55:21.128Z,21.23
2017-08-01T20:57:22.808Z,21.24
2017-08-01T20:59:24.744Z,21.29
2017-08-01T21:01:26.153Z,21.23
2017-08-01T21:03:27.702Z,21.26
2017-08-01T21:05:29.174Z,21.17
2017-08-01T21:07:30.702Z,21.14
2017-08-01T21:09:32.253Z,21.06
2017-08-01T21:11:33.785Z,21.08
2017-08-01T21:13:35.356Z,21.05
2017-08-01T21:15:36.834Z,21.05
2017-08-01T21:17:38.393Z,21.05
2017-08-01T21:19:39.874Z,21.01
2017-08-01T21:21:41.320Z,21.04
2017-08-01T21:23:42.757Z,21.05
2017-08-01T21:25:44.184Z,21.04
2017-08-01T21:27:45.615Z,20.86
2017-08-01T21:29:47.046Z,20.96
2017-08-01T21:31:48.482Z,20.83
2017-08-01T21:33:49.935Z,20.84
2017-08-01T21:35:51.365Z,20.80
2017-08-01T21:37:52.792Z,20.74
2017-08-01T21:39:54.241Z,20.66
2017-08-01T21:41:55.692Z,20.79
2017-08-01T21:43:57.134Z,20.68
2017-08-01T21:45:58.567Z,20.66
2017-08-01T21:48:00.019Z,20.64
2017-08-01T21:50:01.455Z,20.69
2017-08-01T21:52:02.937Z,20.54
2017-08-01T21:54:04.503Z,20.66
2017-08-01T21:56:05.970Z,20.54
2017-08-01T21:58:07.473Z,20.53
2017-08-01T22:00:09.023Z,20.50
2017-08-01T22:02:10.504Z,20.49
2017-08-01T22:04:12.015Z,20.47
2017-08-01T22:06:13.558Z,20.46
2017-08-01T22:08:15.031Z,20.39
2017-08-01T22:10:16.526Z,20.43
2017-08-01T22:12:18.006Z,20.38
2017-08-01T22:14:19.685Z,20.33
2017-08-01T22:16:21.200Z,20.31
2017-08-01T22:18:23.066Z,20.23
2017-08-01T22:20:24.936Z,20.13
2017-08-01T22:22:26.496Z,20.18
2017-08-01T22:24:27.977Z,20.08
2017-08-01T22:26:29.464Z,20.09
2017-08-01T22:28:30.956Z,20.10
2017-08-01T22:30:32.471Z,20.06
2017-08-01T22:32:33.971Z,20.02
2017-08-01T22:34:35.491Z,20.02
2017-08-01T22:37:17.952Z,19.98
2017-08-01T22:39:19.363Z,19.93
2017-08-01T22:41:21.002Z,19.87
2017-08-01T22:43:22.464Z,19.93
2017-08-01T22:45:23.881Z,19.83
2017-08-01T22:47:25.314Z,19.90
2017-08-01T22:49:26.811Z,19.78
2017-08-01T22:51:28.230Z,19.90
2017-08-01T22:53:29.659Z,19.83
2017-08-01T22:55:31.091Z,19.79
2017-08-01T22:57:32.519Z,19.83
2017-08-01T22:59:34.075Z,19.76
2017-08-01T23:01:35.519Z,19.73
2017-08-01T23:03:36.925Z,19.66
2017-08-01T23:05:38.359Z,19.69
2017-08-01T23:07:39.792Z,19.66
2017-08-01T23:09:41.221Z,19.68
2017-08-01T23:11:42.664Z,19.66
2017-08-01T23:13:44.383Z,19.61
2017-08-01T23:15:46.228Z,19.68
2017-08-01T23:17:47.728Z,19.66
2017-08-01T23:19:49.440Z,19.65
2017-08-01T23:21:51.049Z,19.55
2017-08-01T23:23:52.538Z,19.55
2017-08-01T23:25:54.031Z,19.58
2017-08-01T23:27:55.597Z,19.57
2017-08-01T23:29:57.113Z,19.57
2017-08-01T23:31:58.569Z,19.54
2017-08-01T23:34:00.066Z,19.51
2017-08-01T23:36:01.616Z,19.53
2017-08-01T23:38:03.171Z,19.47
2017-08-01T23:40:04.741Z,19.43
2017-08-01T23:42:06.272Z,19.51
2017-08-01T23:44:07.760Z,19.46
2017-08-01T23:46:09.198Z,19.39
2017-08-01T23:48:10.943Z,19.40
2017-08-01T23:50:12.435Z,19.35
2017-08-01T23:52:13.966Z,19.36
2017-08-01T23:54:15.469Z,19.32
2017-08-01T23:56:16.981Z,19.31
2017-08-01T23:58:18.502Z,19.23
